sensor_id;sensor_type;location;lat;lon;timestamp;P1;durP1;ratioP1;P2;durP2;ratioP2
12921;SDS011;6528;48.086;16.282;2022-10-16T00:00:47;12.13;;;11.17;;
12921;SDS011;6528;48.086;16.282;2022-10-16T00:03:14;11.87;;;10.87;;
12921;SDS011;6528;48.086;16.282;2022-10-16T00:05:41;11.40;;;10.50;;
12921;SDS011;6528;48.086;16.282;2022-10-16T00:08:10;11.40;;;10.60;;
12921;SDS011;6528;48.086;16.282;2022-10-16T00:10:37;10.93;;;10.03;;
12921;SDS011;6528;48.086;16.282;2022-10-16T00:13:05;11.37;;;10.47;;
12921;SDS011;6528;48.086;16.282;2022-10-16T00:15:33;11.67;;;10.63;;
12921;SDS011;6528;48.086;16.282;2022-10-16T00:18:03;11.13;;;10.23;;
12921;SDS011;6528;48.086;16.282;2022-10-16T00:20:30;10.87;;;9.97;;
12921;SDS011;6528;48.086;16.282;2022-10-16T00:23:00;11.00;;;10.10;;
12921;SDS011;6528;48.086;16.282;2022-10-16T00:25:26;10.80;;;9.90;;
12921;SDS011;6528;48.086;16.282;2022-10-16T00:27:53;11.03;;;10.03;;
12921;SDS011;6528;48.086;16.282;2022-10-16T00:30:20;11.23;;;10.33;;
12921;SDS011;6528;48.086;16.282;2022-10-16T00:32:47;10.93;;;10.13;;
12921;SDS011;6528;48.086;16.282;2022-10-16T00:35:14;10.77;;;9.93;;
12921;SDS011;6528;48.086;16.282;2022-10-16T00:37:40;10.43;;;9.67;;
12921;SDS011;6528;48.086;16.282;2022-10-16T00:40:07;11.07;;;10.17;;
12921;SDS011;6528;48.086;16.282;2022-10-16T00:42:34;10.70;;;9.90;;
12921;SDS011;6528;48.086;16.282;2022-10-16T00:45:01;10.03;;;9.13;;
12921;SDS011;6528;48.086;16.282;2022-10-16T00:47:36;10.20;;;9.40;;
12921;SDS011;6528;48.086;16.282;2022-10-16T00:50:13;9.60;;;8.90;;
12921;SDS011;6528;48.086;16.282;2022-10-16T00:52:47;10.67;;;9.87;;
12921;SDS011;6528;48.086;16.282;2022-10-16T00:55:15;9.80;;;9.00;;
12921;SDS011;6528;48.086;16.282;2022-10-16T00:57:43;10.20;;;9.40;;
12921;SDS011;6528;48.086;16.282;2022-10-16T01:00:16;9.87;;;9.10;;
12921;SDS011;6528;48.086;16.282;2022-10-16T01:02:55;10.27;;;9.30;;
12921;SDS011;6528;48.086;16.282;2022-10-16T01:05:39;10.03;;;9.23;;
12921;SDS011;6528;48.086;16.282;2022-10-16T01:08:25;9.87;;;9.17;;
12921;SDS011;6528;48.086;16.282;2022-10-16T01:14:11;9.73;;;9.03;;
12921;SDS011;6528;48.086;16.282;2022-10-16T01:17:08;9.57;;;8.87;;
12921;SDS011;6528;48.086;16.282;2022-10-16T01:22:33;10.10;;;9.30;;
12921;SDS011;6528;48.086;16.282;2022-10-16T01:25:25;9.80;;;8.90;;
12921;SDS011;6528;48.086;16.282;2022-10-16T01:28:16;9.00;;;8.30;;
12921;SDS011;6528;48.086;16.282;2022-10-16T01:30:45;9.00;;;8.30;;
12921;SDS011;6528;48.086;16.282;2022-10-16T01:33:14;9.80;;;9.00;;
12921;SDS011;6528;48.086;16.282;2022-10-16T01:35:47;9.17;;;8.47;;
12921;SDS011;6528;48.086;16.282;2022-10-16T01:38:36;10.27;;;9.47;;
12921;SDS011;6528;48.086;16.282;2022-10-16T01:41:09;9.03;;;8.33;;
12921;SDS011;6528;48.086;16.282;2022-10-16T01:43:53;9.87;;;9.03;;
12921;SDS011;6528;48.086;16.282;2022-10-16T01:46:32;9.33;;;8.63;;
12921;SDS011;6528;48.086;16.282;2022-10-16T01:49:02;8.23;;;7.63;;
12921;SDS011;6528;48.086;16.282;2022-10-16T01:51:30;8.70;;;8.10;;
12921;SDS011;6528;48.086;16.282;2022-10-16T01:53:58;8.67;;;7.97;;
12921;SDS011;6528;48.086;16.282;2022-10-16T01:56:27;9.20;;;8.50;;
12921;SDS011;6528;48.086;16.282;2022-10-16T01:58:56;9.03;;;8.33;;
12921;SDS011;6528;48.086;16.282;2022-10-16T02:01:33;8.80;;;8.10;;
12921;SDS011;6528;48.086;16.282;2022-10-16T02:04:07;9.10;;;8.40;;
12921;SDS011;6528;48.086;16.282;2022-10-16T02:06:43;8.53;;;7.93;;
12921;SDS011;6528;48.086;16.282;2022-10-16T02:09:10;9.60;;;8.80;;
12921;SDS011;6528;48.086;16.282;2022-10-16T02:11:37;8.60;;;8.00;;
12921;SDS011;6528;48.086;16.282;2022-10-16T02:14:04;8.33;;;7.73;;
12921;SDS011;6528;48.086;16.282;2022-10-16T02:16:33;9.17;;;8.37;;
12921;SDS011;6528;48.086;16.282;2022-10-16T02:19:20;8.63;;;8.00;;
12921;SDS011;6528;48.086;16.282;2022-10-16T02:21:52;9.83;;;8.83;;
12921;SDS011;6528;48.086;16.282;2022-10-16T02:30:00;8.43;;;7.83;;
12921;SDS011;6528;48.086;16.282;2022-10-16T02:32:33;8.37;;;7.37;;
12921;SDS011;6528;48.086;16.282;2022-10-16T02:35:03;8.07;;;7.47;;
12921;SDS011;6528;48.086;16.282;2022-10-16T02:37:31;8.87;;;7.97;;
12921;SDS011;6528;48.086;16.282;2022-10-16T02:39:59;8.97;;;8.00;;
12921;SDS011;6528;48.086;16.282;2022-10-16T02:42:28;8.10;;;7.40;;
12921;SDS011;6528;48.086;16.282;2022-10-16T02:44:58;7.77;;;7.20;;
12921;SDS011;6528;48.086;16.282;2022-10-16T02:47:25;9.07;;;8.37;;
12921;SDS011;6528;48.086;16.282;2022-10-16T02:49:52;7.77;;;7.20;;
12921;SDS011;6528;48.086;16.282;2022-10-16T02:52:19;7.53;;;6.93;;
12921;SDS011;6528;48.086;16.282;2022-10-16T02:54:46;8.43;;;7.83;;
12921;SDS011;6528;48.086;16.282;2022-10-16T02:57:13;7.30;;;6.80;;
12921;SDS011;6528;48.086;16.282;2022-10-16T02:59:39;7.57;;;7.00;;
12921;SDS011;6528;48.086;16.282;2022-10-16T03:02:06;7.50;;;7.00;;
12921;SDS011;6528;48.086;16.282;2022-10-16T03:04:33;7.80;;;7.13;;
12921;SDS011;6528;48.086;16.282;2022-10-16T03:07:00;7.00;;;6.57;;
12921;SDS011;6528;48.086;16.282;2022-10-16T03:09:26;6.97;;;6.47;;
12921;SDS011;6528;48.086;16.282;2022-10-16T03:11:53;8.90;;;7.20;;
12921;SDS011;6528;48.086;16.282;2022-10-16T03:14:20;8.37;;;7.67;;
12921;SDS011;6528;48.086;16.282;2022-10-16T03:16:47;8.10;;;7.10;;
12921;SDS011;6528;48.086;16.282;2022-10-16T03:19:13;7.57;;;6.97;;
12921;SDS011;6528;48.086;16.282;2022-10-16T03:21:42;7.20;;;6.70;;
12921;SDS011;6528;48.086;16.282;2022-10-16T03:24:09;7.67;;;7.07;;
12921;SDS011;6528;48.086;16.282;2022-10-16T03:26:36;8.00;;;7.40;;
12921;SDS011;6528;48.086;16.282;2022-10-16T03:29:03;7.60;;;7.00;;
12921;SDS011;6528;48.086;16.282;2022-10-16T03:31:30;6.90;;;6.50;;
12921;SDS011;6528;48.086;16.282;2022-10-16T03:33:57;7.47;;;6.87;;
12921;SDS011;6528;48.086;16.282;2022-10-16T03:36:23;7.23;;;6.63;;
12921;SDS011;6528;48.086;16.282;2022-10-16T03:38:50;6.70;;;6.07;;
12921;SDS011;6528;48.086;16.282;2022-10-16T03:41:17;7.50;;;7.00;;
12921;SDS011;6528;48.086;16.282;2022-10-16T03:43:44;7.20;;;6.70;;
12921;SDS011;6528;48.086;16.282;2022-10-16T03:46:10;7.00;;;6.50;;
12921;SDS011;6528;48.086;16.282;2022-10-16T03:48:37;7.10;;;6.50;;
12921;SDS011;6528;48.086;16.282;2022-10-16T03:51:05;7.80;;;7.10;;
12921;SDS011;6528;48.086;16.282;2022-10-16T03:53:32;7.83;;;7.23;;
12921;SDS011;6528;48.086;16.282;2022-10-16T03:55:59;7.20;;;6.70;;
12921;SDS011;6528;48.086;16.282;2022-10-16T03:58:26;7.40;;;6.80;;
12921;SDS011;6528;48.086;16.282;2022-10-16T04:00:52;7.07;;;6.57;;
12921;SDS011;6528;48.086;16.282;2022-10-16T04:03:20;8.17;;;7.57;;
12921;SDS011;6528;48.086;16.282;2022-10-16T04:05:47;6.70;;;6.20;;
12921;SDS011;6528;48.086;16.282;2022-10-16T04:08:14;9.83;;;6.93;;
12921;SDS011;6528;48.086;16.282;2022-10-16T04:10:43;7.00;;;6.50;;
12921;SDS011;6528;48.086;16.282;2022-10-16T04:13:10;7.60;;;7.00;;
12921;SDS011;6528;48.086;16.282;2022-10-16T04:15:38;8.43;;;6.10;;
12921;SDS011;6528;48.086;16.282;2022-10-16T04:18:05;7.00;;;6.50;;
12921;SDS011;6528;48.086;16.282;2022-10-16T04:20:32;6.80;;;6.20;;
12921;SDS011;6528;48.086;16.282;2022-10-16T04:23:00;6.53;;;6.03;;
12921;SDS011;6528;48.086;16.282;2022-10-16T04:25:27;6.90;;;6.40;;
12921;SDS011;6528;48.086;16.282;2022-10-16T04:27:53;7.20;;;6.70;;
12921;SDS011;6528;48.086;16.282;2022-10-16T04:30:21;8.10;;;6.33;;
12921;SDS011;6528;48.086;16.282;2022-10-16T04:32:48;6.40;;;5.90;;
12921;SDS011;6528;48.086;16.282;2022-10-16T04:35:16;6.50;;;6.00;;
12921;SDS011;6528;48.086;16.282;2022-10-16T04:37:44;6.53;;;6.10;;
12921;SDS011;6528;48.086;16.282;2022-10-16T04:40:11;6.97;;;6.47;;
12921;SDS011;6528;48.086;16.282;2022-10-16T04:42:38;7.03;;;6.53;;
12921;SDS011;6528;48.086;16.282;2022-10-16T04:45:06;6.97;;;6.30;;
12921;SDS011;6528;48.086;16.282;2022-10-16T04:47:39;6.00;;;5.60;;
12921;SDS011;6528;48.086;16.282;2022-10-16T04:50:07;6.87;;;5.77;;
12921;SDS011;6528;48.086;16.282;2022-10-16T04:52:34;6.00;;;5.60;;
12921;SDS011;6528;48.086;16.282;2022-10-16T04:55:06;5.57;;;5.20;;
12921;SDS011;6528;48.086;16.282;2022-10-16T04:57:33;5.50;;;5.20;;
12921;SDS011;6528;48.086;16.282;2022-10-16T05:00:00;6.07;;;5.67;;
12921;SDS011;6528;48.086;16.282;2022-10-16T05:02:26;5.80;;;5.40;;
12921;SDS011;6528;48.086;16.282;2022-10-16T05:04:53;5.90;;;5.50;;
12921;SDS011;6528;48.086;16.282;2022-10-16T05:07:20;6.70;;;6.23;;
12921;SDS011;6528;48.086;16.282;2022-10-16T05:09:47;6.20;;;5.80;;
12921;SDS011;6528;48.086;16.282;2022-10-16T05:12:14;6.20;;;5.80;;
12921;SDS011;6528;48.086;16.282;2022-10-16T05:14:41;6.30;;;5.90;;
12921;SDS011;6528;48.086;16.282;2022-10-16T05:17:07;6.20;;;5.70;;
12921;SDS011;6528;48.086;16.282;2022-10-16T05:19:34;5.30;;;4.93;;
12921;SDS011;6528;48.086;16.282;2022-10-16T05:22:01;5.30;;;5.00;;
12921;SDS011;6528;48.086;16.282;2022-10-16T05:24:27;5.67;;;5.27;;
12921;SDS011;6528;48.086;16.282;2022-10-16T05:26:54;6.00;;;5.57;;
12921;SDS011;6528;48.086;16.282;2022-10-16T05:29:21;6.40;;;5.77;;
12921;SDS011;6528;48.086;16.282;2022-10-16T05:31:52;5.50;;;5.10;;
12921;SDS011;6528;48.086;16.282;2022-10-16T05:34:19;5.27;;;4.97;;
12921;SDS011;6528;48.086;16.282;2022-10-16T05:36:46;5.93;;;5.53;;
12921;SDS011;6528;48.086;16.282;2022-10-16T05:39:14;5.70;;;5.30;;
12921;SDS011;6528;48.086;16.282;2022-10-16T05:41:42;5.90;;;5.50;;
12921;SDS011;6528;48.086;16.282;2022-10-16T05:44:09;5.83;;;5.00;;
12921;SDS011;6528;48.086;16.282;2022-10-16T05:46:36;5.00;;;4.70;;
12921;SDS011;6528;48.086;16.282;2022-10-16T05:49:03;6.10;;;5.70;;
12921;SDS011;6528;48.086;16.282;2022-10-16T05:51:30;6.40;;;5.93;;
12921;SDS011;6528;48.086;16.282;2022-10-16T05:53:56;5.33;;;4.93;;
12921;SDS011;6528;48.086;16.282;2022-10-16T05:56:23;5.00;;;4.67;;
12921;SDS011;6528;48.086;16.282;2022-10-16T05:58:50;5.40;;;5.00;;
12921;SDS011;6528;48.086;16.282;2022-10-16T06:01:17;5.57;;;5.03;;
12921;SDS011;6528;48.086;16.282;2022-10-16T06:03:45;5.60;;;5.20;;
12921;SDS011;6528;48.086;16.282;2022-10-16T06:06:13;5.93;;;5.53;;
12921;SDS011;6528;48.086;16.282;2022-10-16T06:08:45;5.13;;;4.83;;
12921;SDS011;6528;48.086;16.282;2022-10-16T06:11:14;4.80;;;4.50;;
12921;SDS011;6528;48.086;16.282;2022-10-16T06:13:42;5.93;;;5.43;;
12921;SDS011;6528;48.086;16.282;2022-10-16T06:16:10;5.57;;;5.17;;
12921;SDS011;6528;48.086;16.282;2022-10-16T06:18:37;5.10;;;4.73;;
12921;SDS011;6528;48.086;16.282;2022-10-16T06:21:10;5.77;;;5.37;;
12921;SDS011;6528;48.086;16.282;2022-10-16T06:23:42;5.10;;;4.80;;
12921;SDS011;6528;48.086;16.282;2022-10-16T06:26:12;5.50;;;5.10;;
12921;SDS011;6528;48.086;16.282;2022-10-16T06:28:40;5.93;;;5.53;;
12921;SDS011;6528;48.086;16.282;2022-10-16T06:31:08;6.07;;;5.50;;
12921;SDS011;6528;48.086;16.282;2022-10-16T06:33:36;4.80;;;4.50;;
12921;SDS011;6528;48.086;16.282;2022-10-16T06:36:08;5.40;;;5.00;;
12921;SDS011;6528;48.086;16.282;2022-10-16T06:38:37;5.53;;;5.13;;
12921;SDS011;6528;48.086;16.282;2022-10-16T06:41:04;5.20;;;4.90;;
12921;SDS011;6528;48.086;16.282;2022-10-16T06:43:32;5.10;;;4.70;;
12921;SDS011;6528;48.086;16.282;2022-10-16T06:46:01;5.30;;;5.00;;
12921;SDS011;6528;48.086;16.282;2022-10-16T06:48:29;5.43;;;5.10;;
12921;SDS011;6528;48.086;16.282;2022-10-16T06:53:36;5.40;;;5.00;;
12921;SDS011;6528;48.086;16.282;2022-10-16T06:56:26;5.50;;;5.20;;
12921;SDS011;6528;48.086;16.282;2022-10-16T06:58:54;5.87;;;5.37;;
12921;SDS011;6528;48.086;16.282;2022-10-16T07:01:21;5.60;;;5.20;;
12921;SDS011;6528;48.086;16.282;2022-10-16T07:03:49;5.73;;;5.33;;
12921;SDS011;6528;48.086;16.282;2022-10-16T07:06:17;5.23;;;4.90;;
12921;SDS011;6528;48.086;16.282;2022-10-16T07:08:46;6.20;;;5.70;;
12921;SDS011;6528;48.086;16.282;2022-10-16T07:11:14;18.57;;;8.60;;
12921;SDS011;6528;48.086;16.282;2022-10-16T07:13:43;14.00;;;9.40;;
12921;SDS011;6528;48.086;16.282;2022-10-16T07:16:20;14.97;;;10.27;;
12921;SDS011;6528;48.086;16.282;2022-10-16T07:18:57;18.50;;;10.57;;
12921;SDS011;6528;48.086;16.282;2022-10-16T07:21:27;14.97;;;11.87;;
12921;SDS011;6528;48.086;16.282;2022-10-16T07:23:57;32.27;;;15.93;;
12921;SDS011;6528;48.086;16.282;2022-10-16T07:26:25;48.90;;;22.90;;
12921;SDS011;6528;48.086;16.282;2022-10-16T07:28:53;47.63;;;23.73;;
12921;SDS011;6528;48.086;16.282;2022-10-16T07:31:21;51.00;;;21.77;;
12921;SDS011;6528;48.086;16.282;2022-10-16T07:33:48;33.50;;;20.50;;
12921;SDS011;6528;48.086;16.282;2022-10-16T07:36:16;24.03;;;17.73;;
12921;SDS011;6528;48.086;16.282;2022-10-16T07:38:44;19.13;;;17.13;;
12921;SDS011;6528;48.086;16.282;2022-10-16T07:41:12;19.00;;;17.13;;
12921;SDS011;6528;48.086;16.282;2022-10-16T07:43:44;19.17;;;17.27;;
12921;SDS011;6528;48.086;16.282;2022-10-16T07:46:15;18.03;;;16.33;;
12921;SDS011;6528;48.086;16.282;2022-10-16T07:48:43;19.73;;;17.83;;
12921;SDS011;6528;48.086;16.282;2022-10-16T07:51:17;19.93;;;18.13;;
12921;SDS011;6528;48.086;16.282;2022-10-16T07:53:46;21.40;;;19.47;;
12921;SDS011;6528;48.086;16.282;2022-10-16T07:56:13;20.07;;;18.30;;
12921;SDS011;6528;48.086;16.282;2022-10-16T07:58:41;18.23;;;16.50;;
12921;SDS011;6528;48.086;16.282;2022-10-16T08:01:09;18.10;;;16.57;;
12921;SDS011;6528;48.086;16.282;2022-10-16T08:03:41;19.20;;;17.40;;
12921;SDS011;6528;48.086;16.282;2022-10-16T08:06:09;18.30;;;16.70;;
12921;SDS011;6528;48.086;16.282;2022-10-16T08:08:35;18.80;;;17.10;;
12921;SDS011;6528;48.086;16.282;2022-10-16T08:11:02;16.50;;;15.10;;
12921;SDS011;6528;48.086;16.282;2022-10-16T08:13:31;16.50;;;15.00;;
12921;SDS011;6528;48.086;16.282;2022-10-16T08:15:58;15.50;;;14.20;;
12921;SDS011;6528;48.086;16.282;2022-10-16T08:18:25;16.10;;;14.80;;
12921;SDS011;6528;48.086;16.282;2022-10-16T08:20:55;16.70;;;15.27;;
12921;SDS011;6528;48.086;16.282;2022-10-16T08:23:26;16.70;;;15.30;;
12921;SDS011;6528;48.086;16.282;2022-10-16T08:25:54;15.30;;;14.10;;
12921;SDS011;6528;48.086;16.282;2022-10-16T08:28:21;15.20;;;13.97;;
12921;SDS011;6528;48.086;16.282;2022-10-16T08:30:49;15.17;;;13.90;;
12921;SDS011;6528;48.086;16.282;2022-10-16T08:33:16;14.90;;;13.60;;
12921;SDS011;6528;48.086;16.282;2022-10-16T08:35:43;14.80;;;13.60;;
12921;SDS011;6528;48.086;16.282;2022-10-16T08:38:17;14.20;;;13.00;;
12921;SDS011;6528;48.086;16.282;2022-10-16T08:40:44;14.37;;;13.10;;
12921;SDS011;6528;48.086;16.282;2022-10-16T08:48:54;13.63;;;12.53;;
12921;SDS011;6528;48.086;16.282;2022-10-16T08:51:29;14.37;;;13.17;;
12921;SDS011;6528;48.086;16.282;2022-10-16T08:53:58;13.00;;;12.00;;
12921;SDS011;6528;48.086;16.282;2022-10-16T08:56:30;13.63;;;12.43;;
12921;SDS011;6528;48.086;16.282;2022-10-16T08:58:57;14.00;;;12.90;;
12921;SDS011;6528;48.086;16.282;2022-10-16T09:01:38;12.60;;;11.50;;
12921;SDS011;6528;48.086;16.282;2022-10-16T09:07:16;16.30;;;14.90;;
12921;SDS011;6528;48.086;16.282;2022-10-16T09:12:49;18.10;;;16.50;;
12921;SDS011;6528;48.086;16.282;2022-10-16T09:15:29;17.33;;;15.80;;
12921;SDS011;6528;48.086;16.282;2022-10-16T09:25:49;20.47;;;18.53;;
12921;SDS011;6528;48.086;16.282;2022-10-16T09:28:17;20.40;;;18.10;;
12921;SDS011;6528;48.086;16.282;2022-10-16T09:30:45;19.00;;;17.27;;
12921;SDS011;6528;48.086;16.282;2022-10-16T09:33:12;20.03;;;18.23;;
12921;SDS011;6528;48.086;16.282;2022-10-16T09:35:40;21.67;;;19.63;;
12921;SDS011;6528;48.086;16.282;2022-10-16T09:40:57;19.90;;;18.10;;
12921;SDS011;6528;48.086;16.282;2022-10-16T09:43:33;16.73;;;15.17;;
12921;SDS011;6528;48.086;16.282;2022-10-16T09:46:04;15.57;;;14.13;;
12921;SDS011;6528;48.086;16.282;2022-10-16T09:48:44;15.60;;;14.27;;
12921;SDS011;6528;48.086;16.282;2022-10-16T09:51:19;15.77;;;14.43;;
12921;SDS011;6528;48.086;16.282;2022-10-16T09:53:48;14.47;;;13.37;;
12921;SDS011;6528;48.086;16.282;2022-10-16T09:56:24;14.70;;;13.40;;
12921;SDS011;6528;48.086;16.282;2022-10-16T09:58:57;14.57;;;13.37;;
12921;SDS011;6528;48.086;16.282;2022-10-16T10:01:29;14.53;;;13.27;;
12921;SDS011;6528;48.086;16.282;2022-10-16T10:04:01;14.50;;;13.30;;
12921;SDS011;6528;48.086;16.282;2022-10-16T10:06:50;14.20;;;12.97;;
12921;SDS011;6528;48.086;16.282;2022-10-16T10:09:27;14.03;;;12.83;;
12921;SDS011;6528;48.086;16.282;2022-10-16T10:11:58;12.90;;;11.90;;
12921;SDS011;6528;48.086;16.282;2022-10-16T10:14:36;12.67;;;11.67;;
12921;SDS011;6528;48.086;16.282;2022-10-16T10:22:22;12.67;;;11.67;;
12921;SDS011;6528;48.086;16.282;2022-10-16T10:30:45;11.73;;;10.83;;
12921;SDS011;6528;48.086;16.282;2022-10-16T10:36:05;11.23;;;10.40;;
12921;SDS011;6528;48.086;16.282;2022-10-16T10:38:50;10.50;;;9.70;;
12921;SDS011;6528;48.086;16.282;2022-10-16T10:47:17;12.20;;;11.10;;
12921;SDS011;6528;48.086;16.282;2022-10-16T10:53:11;11.03;;;10.20;;
12921;SDS011;6528;48.086;16.282;2022-10-16T10:55:57;9.87;;;9.10;;
12921;SDS011;6528;48.086;16.282;2022-10-16T11:01:10;11.53;;;10.43;;
12921;SDS011;6528;48.086;16.282;2022-10-16T11:09:35;11.00;;;10.20;;
12921;SDS011;6528;48.086;16.282;2022-10-16T11:12:17;10.63;;;9.73;;
12921;SDS011;6528;48.086;16.282;2022-10-16T11:14:49;11.60;;;10.70;;
12921;SDS011;6528;48.086;16.282;2022-10-16T11:17:41;10.17;;;9.37;;
12921;SDS011;6528;48.086;16.282;2022-10-16T11:20:18;10.70;;;9.80;;
12921;SDS011;6528;48.086;16.282;2022-10-16T11:22:53;11.10;;;10.20;;
12921;SDS011;6528;48.086;16.282;2022-10-16T11:25:27;10.60;;;9.73;;
12921;SDS011;6528;48.086;16.282;2022-10-16T11:30:25;11.63;;;10.67;;
12921;SDS011;6528;48.086;16.282;2022-10-16T11:43:37;27.03;;;24.63;;
12921;SDS011;6528;48.086;16.282;2022-10-16T11:46:19;28.37;;;25.67;;
12921;SDS011;6528;48.086;16.282;2022-10-16T11:48:50;25.17;;;22.93;;
12921;SDS011;6528;48.086;16.282;2022-10-16T11:51:43;29.17;;;26.30;;
12921;SDS011;6528;48.086;16.282;2022-10-16T11:54:32;27.73;;;25.23;;
12921;SDS011;6528;48.086;16.282;2022-10-16T11:57:09;28.60;;;25.97;;
12921;SDS011;6528;48.086;16.282;2022-10-16T11:59:52;25.50;;;23.03;;
12921;SDS011;6528;48.086;16.282;2022-10-16T12:08:19;28.30;;;25.67;;
12921;SDS011;6528;48.086;16.282;2022-10-16T12:10:46;28.00;;;25.40;;
12921;SDS011;6528;48.086;16.282;2022-10-16T12:13:27;29.40;;;26.67;;
12921;SDS011;6528;48.086;16.282;2022-10-16T12:18:41;30.90;;;27.90;;
12921;SDS011;6528;48.086;16.282;2022-10-16T12:21:10;30.50;;;27.67;;
12921;SDS011;6528;48.086;16.282;2022-10-16T12:26:25;31.27;;;28.23;;
12921;SDS011;6528;48.086;16.282;2022-10-16T12:28:54;31.77;;;28.77;;
12921;SDS011;6528;48.086;16.282;2022-10-16T12:31:22;30.20;;;27.50;;
12921;SDS011;6528;48.086;16.282;2022-10-16T12:33:57;32.83;;;29.87;;
12921;SDS011;6528;48.086;16.282;2022-10-16T12:36:28;31.80;;;28.70;;
12921;SDS011;6528;48.086;16.282;2022-10-16T12:39:00;29.97;;;27.27;;
12921;SDS011;6528;48.086;16.282;2022-10-16T12:41:32;30.37;;;27.37;;
12921;SDS011;6528;48.086;16.282;2022-10-16T12:44:01;31.93;;;28.57;;
12921;SDS011;6528;48.086;16.282;2022-10-16T12:51:54;31.80;;;28.70;;
12921;SDS011;6528;48.086;16.282;2022-10-16T12:54:27;31.40;;;28.40;;
12921;SDS011;6528;48.086;16.282;2022-10-16T13:00:07;31.87;;;28.90;;
12921;SDS011;6528;48.086;16.282;2022-10-16T13:02:39;31.37;;;28.57;;
12921;SDS011;6528;48.086;16.282;2022-10-16T13:08:13;32.43;;;29.40;;
12921;SDS011;6528;48.086;16.282;2022-10-16T13:17:02;32.47;;;29.30;;
12921;SDS011;6528;48.086;16.282;2022-10-16T13:19:33;32.83;;;29.70;;
12921;SDS011;6528;48.086;16.282;2022-10-16T13:28:02;34.50;;;31.20;;
12921;SDS011;6528;48.086;16.282;2022-10-16T13:30:38;34.33;;;31.03;;
12921;SDS011;6528;48.086;16.282;2022-10-16T13:33:30;33.70;;;30.50;;
12921;SDS011;6528;48.086;16.282;2022-10-16T13:36:04;32.80;;;29.63;;
12921;SDS011;6528;48.086;16.282;2022-10-16T13:38:33;34.07;;;30.67;;
12921;SDS011;6528;48.086;16.282;2022-10-16T13:43:31;34.77;;;31.47;;
12921;SDS011;6528;48.086;16.282;2022-10-16T13:46:05;34.87;;;31.57;;
12921;SDS011;6528;48.086;16.282;2022-10-16T13:48:41;36.33;;;32.83;;
12921;SDS011;6528;48.086;16.282;2022-10-16T13:51:18;35.60;;;32.37;;
12921;SDS011;6528;48.086;16.282;2022-10-16T13:53:45;34.83;;;31.33;;
12921;SDS011;6528;48.086;16.282;2022-10-16T13:56:13;33.30;;;30.20;;
12921;SDS011;6528;48.086;16.282;2022-10-16T13:58:41;34.47;;;31.00;;
12921;SDS011;6528;48.086;16.282;2022-10-16T14:01:23;35.10;;;31.60;;
12921;SDS011;6528;48.086;16.282;2022-10-16T14:04:01;33.10;;;30.10;;
12921;SDS011;6528;48.086;16.282;2022-10-16T14:06:31;34.77;;;31.57;;
12921;SDS011;6528;48.086;16.282;2022-10-16T14:09:33;35.33;;;32.07;;
12921;SDS011;6528;48.086;16.282;2022-10-16T14:12:03;35.33;;;32.03;;
12921;SDS011;6528;48.086;16.282;2022-10-16T14:14:42;34.47;;;31.27;;
12921;SDS011;6528;48.086;16.282;2022-10-16T14:17:22;33.20;;;30.13;;
12921;SDS011;6528;48.086;16.282;2022-10-16T14:19:58;35.17;;;31.87;;
12921;SDS011;6528;48.086;16.282;2022-10-16T14:22:38;36.17;;;32.67;;
12921;SDS011;6528;48.086;16.282;2022-10-16T14:27:55;36.07;;;32.27;;
12921;SDS011;6528;48.086;16.282;2022-10-16T14:30:29;33.57;;;30.63;;
12921;SDS011;6528;48.086;16.282;2022-10-16T14:33:00;34.93;;;31.63;;
12921;SDS011;6528;48.086;16.282;2022-10-16T14:35:28;34.07;;;30.93;;
12921;SDS011;6528;48.086;16.282;2022-10-16T14:38:01;35.00;;;31.70;;
12921;SDS011;6528;48.086;16.282;2022-10-16T14:40:30;34.63;;;31.57;;
12921;SDS011;6528;48.086;16.282;2022-10-16T14:42:59;33.33;;;30.43;;
12921;SDS011;6528;48.086;16.282;2022-10-16T14:45:28;33.40;;;30.20;;
12921;SDS011;6528;48.086;16.282;2022-10-16T14:47:58;34.83;;;31.43;;
12921;SDS011;6528;48.086;16.282;2022-10-16T14:50:26;34.80;;;31.57;;
12921;SDS011;6528;48.086;16.282;2022-10-16T14:52:53;31.37;;;28.57;;
12921;SDS011;6528;48.086;16.282;2022-10-16T14:55:21;31.90;;;29.03;;
12921;SDS011;6528;48.086;16.282;2022-10-16T14:57:52;35.77;;;32.27;;
12921;SDS011;6528;48.086;16.282;2022-10-16T15:00:25;33.77;;;30.67;;
12921;SDS011;6528;48.086;16.282;2022-10-16T15:02:52;35.70;;;32.43;;
12921;SDS011;6528;48.086;16.282;2022-10-16T15:05:23;33.23;;;30.23;;
12921;SDS011;6528;48.086;16.282;2022-10-16T15:07:52;34.90;;;31.63;;
12921;SDS011;6528;48.086;16.282;2022-10-16T15:10:21;33.50;;;30.30;;
12921;SDS011;6528;48.086;16.282;2022-10-16T15:12:50;32.63;;;29.57;;
12921;SDS011;6528;48.086;16.282;2022-10-16T15:17:50;33.40;;;30.40;;
12921;SDS011;6528;48.086;16.282;2022-10-16T15:20:19;32.20;;;29.20;;
12921;SDS011;6528;48.086;16.282;2022-10-16T15:22:46;33.47;;;30.23;;
12921;SDS011;6528;48.086;16.282;2022-10-16T15:27:59;33.27;;;29.50;;
12921;SDS011;6528;48.086;16.282;2022-10-16T15:30:27;31.00;;;28.17;;
12921;SDS011;6528;48.086;16.282;2022-10-16T15:32:54;30.83;;;27.83;;
12921;SDS011;6528;48.086;16.282;2022-10-16T15:35:21;31.23;;;28.30;;
12921;SDS011;6528;48.086;16.282;2022-10-16T15:37:48;30.40;;;27.50;;
12921;SDS011;6528;48.086;16.282;2022-10-16T15:40:16;32.00;;;28.80;;
12921;SDS011;6528;48.086;16.282;2022-10-16T15:42:44;31.30;;;28.37;;
12921;SDS011;6528;48.086;16.282;2022-10-16T15:45:12;29.40;;;26.70;;
12921;SDS011;6528;48.086;16.282;2022-10-16T15:47:40;30.00;;;27.30;;
12921;SDS011;6528;48.086;16.282;2022-10-16T15:50:11;29.57;;;26.87;;
12921;SDS011;6528;48.086;16.282;2022-10-16T15:52:40;30.97;;;28.17;;
12921;SDS011;6528;48.086;16.282;2022-10-16T15:55:07;30.60;;;27.73;;
12921;SDS011;6528;48.086;16.282;2022-10-16T15:57:35;30.63;;;27.80;;
12921;SDS011;6528;48.086;16.282;2022-10-16T16:00:07;31.23;;;28.27;;
12921;SDS011;6528;48.086;16.282;2022-10-16T16:02:37;29.93;;;27.23;;
12921;SDS011;6528;48.086;16.282;2022-10-16T16:05:04;29.40;;;26.73;;
12921;SDS011;6528;48.086;16.282;2022-10-16T16:07:33;28.80;;;26.20;;
12921;SDS011;6528;48.086;16.282;2022-10-16T16:10:00;30.70;;;27.73;;
12921;SDS011;6528;48.086;16.282;2022-10-16T16:12:28;30.33;;;27.47;;
12921;SDS011;6528;48.086;16.282;2022-10-16T16:14:55;30.93;;;28.13;;
12921;SDS011;6528;48.086;16.282;2022-10-16T16:17:27;29.40;;;26.70;;
12921;SDS011;6528;48.086;16.282;2022-10-16T16:19:53;30.17;;;27.27;;
12921;SDS011;6528;48.086;16.282;2022-10-16T16:22:20;31.83;;;28.73;;
12921;SDS011;6528;48.086;16.282;2022-10-16T16:24:47;27.80;;;25.30;;
12921;SDS011;6528;48.086;16.282;2022-10-16T16:27:13;30.90;;;28.00;;
12921;SDS011;6528;48.086;16.282;2022-10-16T16:29:41;28.93;;;26.43;;
12921;SDS011;6528;48.086;16.282;2022-10-16T16:32:08;31.20;;;28.20;;
12921;SDS011;6528;48.086;16.282;2022-10-16T16:34:34;31.03;;;28.20;;
12921;SDS011;6528;48.086;16.282;2022-10-16T16:37:01;30.03;;;27.33;;
12921;SDS011;6528;48.086;16.282;2022-10-16T16:39:28;31.10;;;28.30;;
12921;SDS011;6528;48.086;16.282;2022-10-16T16:41:55;30.03;;;27.23;;
12921;SDS011;6528;48.086;16.282;2022-10-16T16:44:24;30.20;;;27.40;;
12921;SDS011;6528;48.086;16.282;2022-10-16T16:46:51;30.00;;;27.20;;
12921;SDS011;6528;48.086;16.282;2022-10-16T16:49:18;29.20;;;26.53;;
12921;SDS011;6528;48.086;16.282;2022-10-16T16:51:45;30.73;;;27.83;;
12921;SDS011;6528;48.086;16.282;2022-10-16T16:54:12;30.77;;;27.80;;
12921;SDS011;6528;48.086;16.282;2022-10-16T16:56:40;30.60;;;27.90;;
12921;SDS011;6528;48.086;16.282;2022-10-16T16:59:16;32.50;;;29.43;;